Time;durP1;ratioP1;P1;durP2;ratioP2;P2;SDS_P1;SDS_P2;PMS_P1;PMS_P2;Temp;Humidity;BMP_temperature;BMP_pressure;BME280_temperature;BME280_humidity;BME280_pressure;Samples;Min_cycle;Max_cycle;Signal;HPM_P1;HPM_P2
2022/02/21 00:02:02;;;;;;;33.05;5.68;;;;;;;10.49;73.61;100447.47;5023462;28;20433;-70
2022/02/21 00:04:32;;;;;;;32.25;5.55;;;;;;;10.29;67.75;100420.50;5028456;28;20046;-69
2022/02/21 00:07:01;;;;;;;27.95;4.75;;;;;;;10.27;60.81;100482.53;5026429;28;20049;-69
2022/02/21 00:09:28;;;;;;;27.88;4.07;;;;;;;10.13;58.27;100452.34;5026941;28;20068;-69
2022/02/21 00:11:55;;;;;;;31.77;5.32;;;;;;;10.15;59.69;100450.91;5024455;28;20049;-69
2022/02/21 00:14:22;;;;;;;38.35;6.97;;;;;;;10.22;59.27;100450.44;5025589;28;20064;-70
2022/02/21 00:16:50;;;;;;;28.75;5.15;;;;;;;10.07;59.48;100459.09;5029282;28;20049;-71
2022/02/21 00:19:17;;;;;;;30.00;5.90;;;;;;;10.42;59.30;100482.09;5028402;28;20069;-70
2022/02/21 00:21:44;;;;;;;27.13;4.50;;;;;;;10.37;59.30;100455.53;5025716;28;20050;-69
2022/02/21 00:24:12;;;;;;;18.35;3.28;;;;;;;9.88;55.64;100508.03;5026852;28;20046;-69
2022/02/21 00:26:39;;;;;;;23.00;4.40;;;;;;;9.75;56.99;100489.63;5027981;28;20050;-69
2022/02/21 00:29:08;;;;;;;30.25;4.97;;;;;;;9.99;58.32;100479.91;5029168;28;20042;-69
2022/02/21 00:31:36;;;;;;;23.73;3.95;;;;;;;9.79;54.72;100512.66;5021160;28;20080;-69
2022/02/21 00:34:04;;;;;;;25.77;3.92;;;;;;;9.59;54.73;100521.41;5029089;28;20061;-69
2022/02/21 00:36:32;;;;;;;29.73;5.07;;;;;;;9.70;56.79;100529.09;5027583;28;20496;-69
2022/02/21 00:38:59;;;;;;;24.27;4.45;;;;;;;9.38;56.19;100528.50;5022257;28;20056;-69
2022/02/21 00:41:26;;;;;;;22.98;4.22;;;;;;;9.35;57.17;100518.94;5006377;28;20539;-69
2022/02/21 00:43:54;;;;;;;26.30;3.92;;;;;;;9.55;56.63;100520.41;5022825;28;20520;-69
2022/02/21 00:46:21;;;;;;;24.23;4.40;;;;;;;9.27;56.81;100516.94;5022836;28;20062;-69
2022/02/21 00:48:48;;;;;;;24.02;3.63;;;;;;;9.32;57.35;100522.31;5010485;28;20050;-69
2022/02/21 00:51:16;;;;;;;24.35;4.45;;;;;;;9.06;57.85;100530.31;5026939;28;20053;-69
2022/02/21 00:53:43;;;;;;;23.75;4.07;;;;;;;9.40;58.18;100540.78;5025406;28;20140;-70
2022/02/21 00:56:10;;;;;;;23.10;3.55;;;;;;;9.36;57.54;100525.25;5025716;28;20042;-69
2022/02/21 00:58:38;;;;;;;33.30;4.40;;;;;;;9.62;58.55;100548.28;5026110;28;20053;-68
2022/02/21 01:01:05;;;;;;;25.60;4.53;;;;;;;9.62;57.70;100545.53;5028497;28;20056;-69
2022/02/21 01:03:32;;;;;;;23.40;4.68;;;;;;;9.41;58.60;100589.16;5028216;28;20058;-68
2022/02/21 01:06:00;;;;;;;21.98;3.97;;;;;;;8.98;65.07;100642.81;5025214;28;20045;-68
2022/02/21 01:08:27;;;;;;;16.33;2.65;;;;;;;7.55;72.78;100674.00;5027962;28;20508;-69
2022/02/21 01:10:54;;;;;;;12.63;2.78;;;;;;;7.37;76.78;100670.13;5026342;28;20050;-70
2022/02/21 01:13:22;;;;;;;17.52;2.67;;;;;;;6.75;80.35;100638.25;5025759;28;20559;-68
2022/02/21 01:15:49;;;;;;;15.15;2.78;;;;;;;6.87;81.44;100624.13;5029628;28;20594;-68
2022/02/21 01:18:16;;;;;;;16.88;3.17;;;;;;;6.88;80.72;100617.56;5023587;28;20787;-68
2022/02/21 01:20:44;;;;;;;16.75;2.53;;;;;;;6.97;79.77;100607.63;5028004;28;20049;-69
2022/02/21 01:23:11;;;;;;;14.23;2.13;;;;;;;7.31;78.14;100602.78;5024782;28;20037;-70
2022/02/21 01:25:39;;;;;;;16.65;3.03;;;;;;;7.46;77.73;100612.72;5027828;28;20373;-69
2022/02/21 01:28:07;;;;;;;13.45;2.20;;;;;;;7.27;76.21;100612.69;5027523;28;20041;-69
2022/02/21 01:30:34;;;;;;;12.80;2.30;;;;;;;7.23;76.70;100622.63;5028009;28;20052;-69
2022/02/21 01:33:01;;;;;;;13.77;3.00;;;;;;;7.28;76.17;100625.28;5026618;28;20068;-69
2022/02/21 01:35:29;;;;;;;17.83;2.78;;;;;;;7.27;76.40;100626.38;4988612;28;20054;-68
2022/02/21 01:37:56;;;;;;;18.67;3.67;;;;;;;7.31;75.66;100623.88;5024236;28;20057;-69
2022/02/21 01:40:23;;;;;;;16.42;3.05;;;;;;;7.51;76.51;100631.84;5027323;28;20057;-69
2022/02/21 01:42:51;;;;;;;20.73;2.80;;;;;;;7.32;75.31;100642.75;5027473;28;20049;-68
2022/02/21 01:45:18;;;;;;;18.55;3.15;;;;;;;7.45;75.51;100654.94;5027780;28;20057;-69
2022/02/21 01:47:45;;;;;;;26.80;3.53;;;;;;;7.42;74.31;100680.19;5032273;28;20045;-69
2022/02/21 01:50:13;;;;;;;15.98;2.97;;;;;;;7.07;75.05;100716.22;5016781;28;20053;-68
2022/02/21 01:52:40;;;;;;;19.80;3.35;;;;;;;6.99;76.80;100681.25;5031237;28;20053;-69
2022/02/21 01:55:08;;;;;;;24.80;3.92;;;;;;;7.05;78.37;100669.94;5016441;28;20060;-69
2022/02/21 01:57:35;;;;;;;15.30;3.03;;;;;;;6.73;77.40;100647.84;5027367;28;20056;-68
2022/02/21 02:00:04;;;;;;;23.27;4.18;;;;;;;6.78;77.05;100645.06;5029967;28;20064;-68
2022/02/21 02:02:43;;;;;;;19.75;3.60;;;;;;;7.06;75.98;100654.34;5028404;28;20056;-68
2022/02/21 02:05:10;;;;;;;26.20;3.35;;;;;;;7.01;74.22;100643.44;5029163;28;20053;-70
2022/02/21 02:07:38;;;;;;;31.17;3.88;;;;;;;7.21;74.75;100634.97;5030997;28;20123;-68
2022/02/21 02:10:07;;;;;;;21.23;3.72;;;;;;;7.27;73.31;100628.34;5030891;28;20049;-70
2022/02/21 02:12:34;;;;;;;24.00;3.67;;;;;;;7.24;72.02;100634.38;5014805;28;20057;-71
2022/02/21 02:15:02;;;;;;;26.33;4.32;;;;;;;7.36;70.95;100621.88;5031196;28;20053;-69
2022/02/21 02:17:29;;;;;;;22.67;3.97;;;;;;;7.65;71.47;100624.50;5030349;28;20057;-69
2022/02/21 02:19:56;;;;;;;25.98;3.78;;;;;;;7.64;70.04;100629.19;5025019;28;20046;-69
2022/02/21 02:22:24;;;;;;;27.13;5.32;;;;;;;7.62;69.36;100625.09;5028954;28;20088;-69
2022/02/21 02:24:53;;;;;;;23.30;3.70;;;;;;;7.57;71.44;100616.94;5030901;28;20056;-69
2022/02/21 02:27:21;;;;;;;22.42;3.50;;;;;;;7.68;70.25;100613.78;5026344;28;20045;-69
2022/02/21 02:29:51;;;;;;;24.70;4.07;;;;;;;7.95;70.25;100624.84;5027583;28;20057;-70
2022/02/21 02:32:20;;;;;;;26.42;4.88;;;;;;;7.80;68.79;100616.06;5028393;28;20053;-69
2022/02/21 02:34:48;;;;;;;32.90;4.88;;;;;;;7.80;69.50;100616.88;5027953;28;20473;-69
2022/02/21 02:37:16;;;;;;;30.00;4.07;;;;;;;7.83;70.20;100615.44;5029644;28;20050;-69
2022/02/21 02:39:43;;;;;;;32.60;4.75;;;;;;;8.00;69.27;100621.25;5023537;28;20050;-69
2022/02/21 02:42:10;;;;;;;31.52;4.13;;;;;;;7.98;68.78;100613.28;5030837;28;20057;-69
2022/02/21 02:44:38;;;;;;;30.77;4.38;;;;;;;8.12;69.66;100612.53;5026914;28;20497;-70
2022/02/21 02:47:06;;;;;;;34.60;5.60;;;;;;;7.93;67.40;100626.28;5028031;28;20052;-70
2022/02/21 02:49:34;;;;;;;37.33;5.57;;;;;;;7.97;69.53;100610.84;5030352;28;20057;-69
2022/02/21 02:52:02;;;;;;;29.73;4.88;;;;;;;7.83;67.08;100626.41;5031225;28;20439;-69
2022/02/21 02:54:30;;;;;;;33.72;5.38;;;;;;;8.14;69.19;100621.28;5028715;28;20068;-69
2022/02/21 02:56:57;;;;;;;40.95;5.45;;;;;;;7.76;66.99;100623.22;5028525;28;20041;-69
2022/02/21 02:59:25;;;;;;;31.08;5.00;;;;;;;7.92;69.32;100619.16;5027745;28;20057;-69
2022/02/21 03:01:53;;;;;;;34.42;5.80;;;;;;;8.03;67.67;100626.13;5029102;28;20049;-69
2022/02/21 03:04:20;;;;;;;40.28;5.15;;;;;;;7.74;66.92;100636.44;5027456;28;20519;-69
2022/02/21 03:06:47;;;;;;;32.15;4.93;;;;;;;7.65;66.82;100624.50;5029769;28;20054;-68
2022/02/21 03:09:15;;;;;;;35.22;5.03;;;;;;;7.55;65.30;100621.94;5031475;28;20041;-68
2022/02/21 03:11:42;;;;;;;38.90;4.80;;;;;;;7.49;66.30;100626.66;5029931;28;20054;-69
2022/02/21 03:14:10;;;;;;;24.23;4.78;;;;;;;7.78;67.19;100621.84;5001380;28;20491;-70
2022/02/21 03:16:38;;;;;;;36.42;5.70;;;;;;;7.97;65.24;100621.81;5014773;28;20054;-70
2022/02/21 03:19:05;;;;;;;30.58;5.43;;;;;;;8.20;66.48;100611.84;5029494;28;20045;-69
2022/02/21 03:21:33;;;;;;;30.63;5.13;;;;;;;7.71;64.52;100626.88;5013501;28;20050;-69
2022/02/21 03:24:00;;;;;;;34.38;5.25;;;;;;;7.68;65.15;100619.25;5028637;28;20057;-69
2022/02/21 03:26:28;;;;;;;35.10;5.20;;;;;;;7.90;65.00;100629.59;5028710;28;20049;-69
2022/02/21 03:28:55;;;;;;;37.90;5.63;;;;;;;7.96;65.35;100620.19;5029088;28;21620;-69
2022/02/21 03:31:22;;;;;;;33.65;5.47;;;;;;;7.93;64.32;100632.56;5023101;28;20050;-69
2022/02/21 03:33:50;;;;;;;26.88;4.15;;;;;;;7.84;65.36;100628.06;5028762;28;20610;-69
2022/02/21 03:36:17;;;;;;;30.40;4.63;;;;;;;7.40;66.09;100638.56;5025679;28;20536;-68
2022/02/21 03:38:44;;;;;;;37.22;6.13;;;;;;;7.48;67.90;100632.44;5026490;28;20041;-69
2022/02/21 03:41:12;;;;;;;30.83;4.47;;;;;;;7.48;66.78;100641.44;5029398;28;20046;-69
2022/02/21 03:43:39;;;;;;;29.23;4.75;;;;;;;7.76;67.05;100646.00;5027183;28;20378;-69
2022/02/21 03:46:06;;;;;;;24.67;4.55;;;;;;;7.80;66.23;100625.09;5029566;28;20041;-69
2022/02/21 03:48:34;;;;;;;27.92;4.60;;;;;;;7.49;67.04;100636.78;5025834;28;20053;-69
2022/02/21 03:51:01;;;;;;;22.73;4.15;;;;;;;7.30;66.86;100642.25;5023163;28;20449;-71
2022/02/21 03:53:28;;;;;;;31.35;5.63;;;;;;;7.57;67.36;100636.94;5029064;28;20546;-70
2022/02/21 03:55:56;;;;;;;29.25;4.93;;;;;;;7.57;68.68;100631.47;5014975;28;20049;-69
2022/02/21 03:58:23;;;;;;;29.88;4.03;;;;;;;7.58;67.89;100640.50;5027512;28;20053;-70
2022/02/21 04:00:51;;;;;;;25.80;4.00;;;;;;;7.53;66.12;100633.16;5025631;28;20480;-69
2022/02/21 04:03:18;;;;;;;22.75;3.97;;;;;;;7.35;66.01;100646.84;5025865;28;20623;-70
2022/02/21 04:05:45;;;;;;;25.27;3.55;;;;;;;7.46;66.36;100653.84;5028182;28;20049;-69
2022/02/21 04:08:13;;;;;;;24.10;3.58;;;;;;;7.54;66.51;100650.44;5027874;28;20045;-68
2022/02/21 04:10:40;;;;;;;20.17;3.90;;;;;;;7.51;66.41;100660.06;5028830;28;20042;-69
2022/02/21 04:13:07;;;;;;;32.42;5.45;;;;;;;7.52;67.90;100649.91;5027509;28;20646;-69
2022/02/21 04:15:35;;;;;;;26.63;4.20;;;;;;;7.52;66.15;100644.41;5022121;28;20056;-70
2022/02/21 04:18:02;;;;;;;23.88;3.50;;;;;;;7.72;67.35;100633.19;5020280;28;20065;-70
2022/02/21 04:20:30;;;;;;;25.35;4.20;;;;;;;8.15;65.91;100642.94;5026833;28;20061;-69
2022/02/21 04:22:57;;;;;;;24.73;4.25;;;;;;;7.71;66.12;100650.72;5028169;28;20061;-69
2022/02/21 04:25:25;;;;;;;14.93;3.35;;;;;;;7.47;66.52;100655.44;5012788;28;20056;-69
2022/02/21 04:27:54;;;;;;;28.90;3.95;;;;;;;7.47;67.06;100644.50;5025688;28;20057;-70
2022/02/21 04:30:24;;;;;;;23.58;3.72;;;;;;;7.39;66.72;100637.72;5026849;28;20048;-68
2022/02/21 04:32:52;;;;;;;23.90;3.33;;;;;;;7.56;66.93;100626.28;5025624;28;20045;-69
2022/02/21 04:35:21;;;;;;;25.05;3.60;;;;;;;7.47;65.73;100639.00;5008445;28;20054;-68
2022/02/21 04:37:49;;;;;;;24.98;3.88;;;;;;;7.36;67.02;100637.50;5026582;28;20405;-69
2022/02/21 04:40:19;;;;;;;23.67;3.60;;;;;;;7.58;67.42;100641.31;5014056;28;20057;-70
2022/02/21 04:42:50;;;;;;;18.83;4.43;;;;;;;7.65;65.68;100638.22;5028659;28;20046;-69
2022/02/21 04:45:18;;;;;;;23.23;3.63;;;;;;;7.35;67.00;100649.59;5026725;28;20053;-69
2022/02/21 04:47:45;;;;;;;20.98;4.00;;;;;;;7.34;67.14;100646.03;5026641;28;20054;-69
2022/02/21 04:50:13;;;;;;;17.95;3.65;;;;;;;7.70;67.42;100640.88;5026560;28;20073;-69
2022/02/21 04:52:41;;;;;;;19.77;2.70;;;;;;;7.36;67.61;100659.41;5025448;28;20058;-68
2022/02/21 04:55:11;;;;;;;18.95;3.28;;;;;;;7.44;68.48;100645.91;5028737;28;20140;-69
2022/02/21 04:57:38;;;;;;;18.05;2.83;;;;;;;7.48;69.32;100646.94;5011919;28;20046;-68
2022/02/21 05:00:09;;;;;;;19.98;3.28;;;;;;;7.68;70.26;100626.66;5028784;28;20045;-69
2022/02/21 05:02:36;;;;;;;19.05;3.65;;;;;;;7.48;68.51;100633.22;5028095;28;20060;-68
2022/02/21 05:05:04;;;;;;;25.65;3.58;;;;;;;7.57;68.66;100645.16;5025422;28;20053;-69
2022/02/21 05:07:31;;;;;;;21.67;3.53;;;;;;;7.93;67.80;100648.22;5023530;28;20049;-69
2022/02/21 05:09:59;;;;;;;20.35;4.15;;;;;;;7.72;66.89;100641.41;5027834;28;20049;-69
2022/02/21 05:12:26;;;;;;;23.10;3.90;;;;;;;7.61;67.71;100642.66;5026297;28;20045;-70
2022/02/21 05:14:53;;;;;;;19.67;4.15;;;;;;;7.35;68.08;100639.44;5024341;28;20060;-70
2022/02/21 05:17:21;;;;;;;17.02;3.83;;;;;;;7.27;68.50;100653.00;5026317;28;20053;-68
2022/02/21 05:19:48;;;;;;;18.67;3.72;;;;;;;7.57;70.56;100649.81;5026095;28;20049;-68
2022/02/21 05:22:15;;;;;;;21.27;3.60;;;;;;;7.40;68.46;100649.50;5022898;28;20053;-69
2022/02/21 05:24:43;;;;;;;19.92;2.78;;;;;;;7.59;69.77;100644.88;5026321;28;20049;-69
2022/02/21 05:27:10;;;;;;;22.40;4.22;;;;;;;7.57;69.59;100633.38;5027263;28;20419;-69
2022/02/21 05:29:37;;;;;;;22.98;3.97;;;;;;;7.43;68.54;100649.75;5025582;28;20064;-69
2022/02/21 05:32:05;;;;;;;26.10;4.25;;;;;;;7.42;69.03;100650.88;5026957;28;20064;-68
2022/02/21 05:34:32;;;;;;;21.08;3.13;;;;;;;7.06;69.50;100652.41;5012159;28;20069;-69
2022/02/21 05:37:00;;;;;;;20.35;3.60;;;;;;;7.21;69.99;100638.53;5024096;28;20404;-68
2022/02/21 05:39:27;;;;;;;20.67;2.75;;;;;;;7.33;69.09;100649.88;5026824;28;20048;-69
2022/02/21 05:41:54;;;;;;;20.95;3.03;;;;;;;7.10;70.12;100641.66;5026357;28;23480;-68
2022/02/21 05:44:22;;;;;;;13.48;2.40;;;;;;;7.05;69.80;100653.50;5027785;28;20057;-70
2022/02/21 05:46:49;;;;;;;14.65;2.42;;;;;;;7.29;71.29;100643.34;5027055;28;20060;-69
2022/02/21 05:49:17;;;;;;;16.58;2.03;;;;;;;7.39;68.61;100629.50;5022503;28;20062;-70
2022/02/21 05:51:44;;;;;;;11.82;2.30;;;;;;;7.24;69.11;100631.63;5028625;28;20045;-69
2022/02/21 05:54:11;;;;;;;16.20;2.58;;;;;;;7.14;68.71;100634.50;5028904;28;20058;-69
2022/02/21 05:56:39;;;;;;;16.67;2.15;;;;;;;7.24;70.23;100634.38;5027246;28;20061;-69
2022/02/21 05:59:06;;;;;;;13.68;1.58;;;;;;;6.95;68.64;100637.22;5041265;28;20042;-67
2022/02/21 06:01:33;;;;;;;16.15;2.13;;;;;;;6.94;69.48;100635.56;5028423;28;20052;-70
2022/02/21 06:04:01;;;;;;;10.20;2.05;;;;;;;6.93;70.10;100644.06;5025507;28;20510;-69
2022/02/21 06:06:28;;;;;;;13.50;1.83;;;;;;;6.89;69.97;100654.00;5029043;28;20053;-68
2022/02/21 06:08:55;;;;;;;13.85;2.42;;;;;;;7.05;71.70;100653.50;5022367;28;20057;-68
2022/02/21 06:11:23;;;;;;;10.40;2.10;;;;;;;6.87;70.00;100661.69;5026799;28;20056;-70
2022/02/21 06:13:50;;;;;;;13.38;2.20;;;;;;;6.99;70.82;100664.81;5010630;28;20061;-68
2022/02/21 06:16:17;;;;;;;8.25;1.38;;;;;;;6.95;69.46;100675.53;5027400;28;20126;-69
2022/02/21 06:18:45;;;;;;;13.75;1.50;;;;;;;7.12;70.30;100678.63;5028111;28;20049;-70
2022/02/21 06:21:12;;;;;;;8.50;1.30;;;;;;;7.31;70.36;100670.44;5025712;28;20046;-69
2022/02/21 06:23:40;;;;;;;10.63;1.60;;;;;;;7.29;68.66;100668.00;5028112;28;20049;-69
2022/02/21 06:26:07;;;;;;;11.50;1.95;;;;;;;7.18;69.12;100669.25;5024005;28;20404;-69
2022/02/21 06:28:34;;;;;;;11.85;2.08;;;;;;;7.01;70.52;100668.88;5029734;28;20041;-68
2022/02/21 06:31:03;;;;;;;11.63;1.60;;;;;;;7.17;71.47;100673.09;5026734;28;20053;-68
2022/02/21 06:33:31;;;;;;;11.32;1.88;;;;;;;7.40;69.86;100679.66;5023516;28;20068;-69
2022/02/21 06:35:58;;;;;;;12.40;2.10;;;;;;;7.40;68.26;100682.41;5030275;28;20058;-70
2022/02/21 06:38:25;;;;;;;16.38;2.00;;;;;;;6.99;68.94;100682.03;5032223;28;20076;-69
2022/02/21 06:40:53;;;;;;;11.48;2.08;;;;;;;6.94;69.89;100681.31;5011948;28;20042;-70
2022/02/21 06:43:20;;;;;;;17.77;2.00;;;;;;;6.97;70.70;100688.94;5029701;28;20053;-69
2022/02/21 06:45:47;;;;;;;15.10;2.30;;;;;;;6.99;70.31;100692.22;5032659;28;20049;-70
2022/02/21 06:48:15;;;;;;;13.73;1.83;;;;;;;6.59;70.84;100699.69;5013536;28;20050;-69
2022/02/21 06:50:42;;;;;;;15.23;2.53;;;;;;;6.84;71.00;100696.72;5021410;28;20052;-70
2022/02/21 06:53:09;;;;;;;16.38;2.17;;;;;;;6.75;70.22;100703.09;5036511;28;20567;-69
2022/02/21 06:55:37;;;;;;;12.98;2.50;;;;;;;6.78;70.99;100702.56;5034484;28;20519;-69
2022/02/21 06:58:04;;;;;;;15.63;1.90;;;;;;;6.87;70.46;100710.94;5037078;28;20408;-69
2022/02/21 07:00:32;;;;;;;10.75;2.83;;;;;;;6.97;72.33;100713.59;5021745;28;20080;-69
2022/02/21 07:02:59;;;;;;;12.07;1.95;;;;;;;7.02;69.95;100710.78;5029170;28;20057;-72
2022/02/21 07:05:27;;;;;;;13.60;1.75;;;;;;;7.20;71.29;100721.81;5037831;28;20049;-68
2022/02/21 07:07:54;;;;;;;20.23;2.50;;;;;;;7.49;69.08;100724.50;5029222;28;20052;-69
2022/02/21 07:10:22;;;;;;;14.55;2.70;;;;;;;7.12;69.34;100729.84;5032512;28;20050;-70
2022/02/21 07:12:51;;;;;;;15.02;2.53;;;;;;;7.16;70.80;100739.13;5036765;28;20046;-70
2022/02/21 07:15:18;;;;;;;17.27;3.08;;;;;;;7.17;70.64;100732.53;5032482;28;20512;-70
2022/02/21 07:17:47;;;;;;;14.30;2.97;;;;;;;7.25;70.43;100730.00;5031262;28;20064;-71
2022/02/21 07:20:15;;;;;;;16.88;2.50;;;;;;;7.24;72.11;100736.56;5031669;28;20059;-69
2022/02/21 07:22:45;;;;;;;17.95;2.78;;;;;;;7.35;71.74;100731.78;5030290;28;20435;-70
2022/02/21 07:25:15;;;;;;;17.17;2.97;;;;;;;7.78;71.78;100741.66;5018409;28;20052;-70
2022/02/21 07:27:49;;;;;;;19.33;2.78;;;;;;;7.84;70.95;100749.53;5035443;28;20511;-70
2022/02/21 07:30:18;;;;;;;15.65;2.78;;;;;;;8.00;71.41;100742.72;5030785;28;20508;-70
2022/02/21 07:32:46;;;;;;;17.23;2.67;;;;;;;7.79;68.89;100741.34;5036064;28;20052;-70
2022/02/21 07:35:13;;;;;;;13.25;2.55;;;;;;;7.48;70.94;100744.78;5035378;28;20054;-70
2022/02/21 07:37:41;;;;;;;15.63;2.58;;;;;;;7.46;71.30;100747.00;5029340;28;20058;-69
2022/02/21 07:40:10;;;;;;;20.23;3.25;;;;;;;7.48;70.14;100736.56;5034206;28;20061;-70
2022/02/21 07:42:39;;;;;;;21.70;2.63;;;;;;;7.66;69.50;100722.91;5030744;28;20069;-71
2022/02/21 07:45:07;;;;;;;21.38;3.65;;;;;;;7.52;69.41;100730.19;5033870;28;20609;-71
2022/02/21 07:47:45;;;;;;;23.42;3.67;;;;;;;7.40;70.23;100732.53;5035375;28;20685;-66
2022/02/21 07:50:13;;;;;;;21.10;4.30;;;;;;;7.83;70.11;100727.88;5032722;28;20058;-68
2022/02/21 07:52:40;;;;;;;21.13;3.33;;;;;;;7.90;68.33;100728.31;5014773;28;20050;-69
2022/02/21 07:55:08;;;;;;;21.70;4.40;;;;;;;7.88;68.80;100717.66;5035460;28;20049;-70
2022/02/21 07:57:39;;;;;;;24.98;3.65;;;;;;;7.64;68.46;100727.03;5028602;28;20061;-71
2022/02/21 08:00:07;;;;;;;14.38;3.28;;;;;;;7.57;68.93;100746.59;5018367;28;20535;-70
2022/02/21 08:02:38;;;;;;;18.48;3.40;;;;;;;7.82;70.16;100742.72;5034665;28;20519;-67
2022/02/21 08:05:07;;;;;;;24.08;4.05;;;;;;;7.52;70.32;100748.56;5035866;28;20087;-67
2022/02/21 08:07:34;;;;;;;19.83;3.50;;;;;;;7.28;70.05;100737.63;5036364;28;20053;-69
2022/02/21 08:10:02;;;;;;;22.77;3.90;;;;;;;7.40;70.46;100739.94;5022399;28;20056;-69
2022/02/21 08:12:31;;;;;;;22.67;3.85;;;;;;;7.45;70.19;100739.88;5034641;28;20037;-70
2022/02/21 08:14:58;;;;;;;22.73;4.10;;;;;;;7.60;69.74;100731.50;5024087;28;20086;-69
2022/02/21 08:17:26;;;;;;;14.65;3.25;;;;;;;7.51;70.25;100738.72;5035618;28;20064;-68
2022/02/21 08:19:54;;;;;;;19.08;3.35;;;;;;;7.77;69.18;100727.16;5033483;28;20053;-65
2022/02/21 08:22:21;;;;;;;21.90;3.72;;;;;;;7.75;69.67;100742.25;5035488;28;20050;-65
2022/02/21 08:24:48;;;;;;;21.02;4.47;;;;;;;7.85;68.65;100737.44;5021876;28;20080;-66
2022/02/21 08:27:15;;;;;;;27.95;4.07;;;;;;;8.00;68.57;100739.19;5032606;28;20064;-66
2022/02/21 08:29:43;;;;;;;30.63;4.40;;;;;;;7.96;67.46;100736.22;5032355;28;20049;-66
2022/02/21 08:32:12;;;;;;;23.13;4.05;;;;;;;7.81;68.43;100741.09;5019648;28;20068;-66
2022/02/21 08:34:41;;;;;;;22.80;3.77;;;;;;;7.79;69.74;100746.03;5026557;28;20121;-65
2022/02/21 08:37:08;;;;;;;24.98;5.47;;;;;;;7.95;68.59;100737.31;5028528;28;20053;-65
2022/02/21 08:39:35;;;;;;;25.63;3.60;;;;;;;7.99;68.23;100745.75;5033211;28;20432;-66
2022/02/21 08:42:03;;;;;;;25.90;4.80;;;;;;;8.31;67.18;100739.56;5031789;28;20457;-65
2022/02/21 08:44:32;;;;;;;18.73;3.80;;;;;;;8.30;66.51;100752.47;5032160;28;20055;-64
2022/02/21 08:46:59;;;;;;;20.70;4.00;;;;;;;8.15;68.22;100749.91;5028980;28;20061;-69
2022/02/21 08:49:27;;;;;;;30.15;3.80;;;;;;;8.26;68.20;100751.44;5026775;28;20402;-69
2022/02/21 08:51:54;;;;;;;22.65;4.35;;;;;;;8.17;67.07;100755.09;5023636;28;20042;-70
2022/02/21 08:54:21;;;;;;;20.02;3.40;;;;;;;7.93;68.45;100777.13;5026636;28;20065;-69
2022/02/21 08:56:49;;;;;;;27.02;4.38;;;;;;;7.91;68.20;100758.19;5025108;28;20056;-68
2022/02/21 08:59:18;;;;;;;26.35;3.65;;;;;;;7.87;67.92;100770.06;5034028;28;20901;-65
2022/02/21 09:01:46;;;;;;;26.63;3.80;;;;;;;8.05;68.19;100746.50;5033067;28;20045;-65
2022/02/21 09:04:22;;;;;;;26.58;4.63;;;;;;;8.25;67.64;100771.75;5027888;28;20061;-66
2022/02/21 09:06:50;;;;;;;26.08;3.50;;;;;;;8.33;66.57;100762.03;5033065;28;20052;-66
2022/02/21 09:09:24;;;;;;;18.85;3.65;;;;;;;8.16;67.11;100767.22;5021124;28;20057;-64
2022/02/21 09:11:54;;;;;;;17.27;3.08;;;;;;;8.22;66.86;100760.50;5030804;28;20041;-65
2022/02/21 09:14:24;;;;;;;20.10;3.17;;;;;;;8.30;65.98;100757.16;5033007;28;20057;-66
2022/02/21 09:16:52;;;;;;;22.85;3.63;;;;;;;8.37;65.58;100757.59;5034625;28;20054;-65
2022/02/21 09:19:19;;;;;;;31.20;3.90;;;;;;;8.32;65.74;100761.22;5031778;28;20132;-65
2022/02/21 09:21:47;;;;;;;23.75;3.92;;;;;;;8.52;65.75;100754.59;5015041;28;20046;-65
2022/02/21 09:24:17;;;;;;;22.88;3.58;;;;;;;8.62;63.89;100760.75;5016596;28;20059;-65
2022/02/21 09:26:44;;;;;;;19.38;3.70;;;;;;;8.65;65.02;100746.41;5024618;28;20056;-66
2022/02/21 09:29:11;;;;;;;20.17;3.80;;;;;;;8.22;65.14;100758.59;5027675;28;20045;-66
2022/02/21 09:31:39;;;;;;;20.67;3.65;;;;;;;8.27;64.98;100749.50;5030179;28;20049;-65
2022/02/21 09:34:06;;;;;;;19.63;3.33;;;;;;;8.44;64.88;100725.09;5028805;28;20405;-66
2022/02/21 09:36:33;;;;;;;24.73;4.15;;;;;;;8.60;64.13;100741.00;5030767;28;20069;-66
2022/02/21 09:39:01;;;;;;;23.92;3.78;;;;;;;8.63;64.65;100756.09;5033250;28;20503;-64
2022/02/21 09:41:29;;;;;;;21.95;3.30;;;;;;;8.86;62.98;100739.47;5030634;28;20136;-64
2022/02/21 09:43:57;;;;;;;21.63;4.75;;;;;;;8.86;62.37;100755.94;5030570;28;20068;-65
2022/02/21 09:46:29;;;;;;;21.05;3.58;;;;;;;8.48;63.71;100745.31;5031581;28;20053;-64
2022/02/21 09:48:58;;;;;;;25.77;5.03;;;;;;;8.48;63.74;100756.31;5023085;28;20895;-65
2022/02/21 09:51:28;;;;;;;24.20;3.40;;;;;;;8.46;64.03;100759.34;5015115;28;20061;-64
2022/02/21 09:53:56;;;;;;;27.40;4.43;;;;;;;8.73;63.84;100758.66;5008814;28;20076;-66
2022/02/21 09:56:23;;;;;;;18.38;3.70;;;;;;;8.85;63.70;100761.75;5018505;28;20057;-65
2022/02/21 09:58:54;;;;;;;17.42;3.63;;;;;;;8.91;62.48;100766.00;5046505;28;20049;-66
2022/02/21 10:01:24;;;;;;;22.63;3.05;;;;;;;8.90;62.85;100765.22;5027650;28;20050;-65
2022/02/21 10:03:54;;;;;;;15.87;3.13;;;;;;;9.20;65.16;100768.53;5017198;28;20046;-66
2022/02/21 10:06:29;;;;;;;16.88;3.38;;;;;;;9.00;61.07;100764.22;5021181;28;20057;-66
2022/02/21 10:09:09;;;;;;;17.67;3.28;;;;;;;8.83;61.77;100780.44;5032742;28;20052;-66
2022/02/21 10:12:15;;;;;;;20.30;3.28;;;;;;;8.95;61.28;100787.09;5023752;28;20049;-66
2022/02/21 10:14:54;;;;;;;24.90;4.25;;;;;;;9.13;61.53;100788.97;5014145;28;20045;-69
2022/02/21 10:17:25;;;;;;;17.90;3.40;;;;;;;9.16;60.45;100790.31;5030577;28;20540;-69
2022/02/21 10:20:05;;;;;;;31.02;4.15;;;;;;;8.98;60.70;100774.69;5038425;28;20373;-70
2022/02/21 10:22:32;;;;;;;24.23;4.68;;;;;;;9.22;60.97;100769.03;5025537;28;20083;-70
2022/02/21 10:25:00;;;;;;;19.25;3.35;;;;;;;9.12;60.64;100788.47;5018262;28;20049;-69
2022/02/21 10:27:29;;;;;;;20.23;3.53;;;;;;;9.22;60.35;100796.53;5040572;28;20068;-70
2022/02/21 10:30:04;;;;;;;20.25;3.97;;;;;;;9.43;61.29;100771.09;5013911;28;20058;-62
2022/02/21 10:32:52;;;;;;;22.23;4.00;;;;;;;9.33;60.53;100776.00;5031126;28;20481;-72
2022/02/21 10:35:28;;;;;;;22.42;4.13;;;;;;;9.28;61.19;100774.13;5037684;28;20060;-68
2022/02/21 10:38:01;;;;;;;26.63;4.63;;;;;;;9.28;59.73;100789.81;5018855;28;20054;-65
2022/02/21 10:40:37;;;;;;;20.73;3.78;;;;;;;9.46;59.60;100789.75;5027078;28;20068;-68
2022/02/21 10:43:17;;;;;;;25.23;5.63;;;;;;;9.43;60.01;100765.59;5023785;28;20037;-72
2022/02/21 10:45:45;;;;;;;20.55;3.80;;;;;;;9.41;60.13;100789.84;5025448;28;20076;-70
2022/02/21 10:48:16;;;;;;;28.42;4.85;;;;;;;9.50;59.36;100788.00;5041529;28;20061;-69
2022/02/21 10:50:53;;;;;;;22.83;3.63;;;;;;;9.62;58.34;100791.09;5024259;28;20052;-69
2022/02/21 10:53:23;;;;;;;29.27;5.18;;;;;;;9.58;58.27;100802.97;5025152;28;20053;-68
2022/02/21 10:55:52;;;;;;;28.60;5.45;;;;;;;9.44;58.37;100785.66;5029592;28;20042;-68
2022/02/21 10:58:22;;;;;;;25.95;4.43;;;;;;;9.76;58.20;100813.88;5033011;28;20061;-68
2022/02/21 11:00:51;;;;;;;27.92;5.53;;;;;;;9.68;57.40;100791.78;5035031;28;20050;-68
2022/02/21 11:03:20;;;;;;;27.73;5.38;;;;;;;9.72;56.50;100803.81;5023244;28;20766;-68
2022/02/21 11:05:48;;;;;;;25.92;5.63;;;;;;;9.86;56.71;100785.38;5036158;28;20049;-68
2022/02/21 11:08:17;;;;;;;30.98;6.43;;;;;;;9.99;56.09;100793.59;5039240;28;20064;-65
2022/02/21 11:10:48;;;;;;;32.90;7.60;;;;;;;10.07;55.74;100803.06;5037105;28;20065;-69
2022/02/21 11:13:16;;;;;;;24.50;6.03;;;;;;;10.11;57.38;100771.91;5027623;28;20060;-69
2022/02/21 11:15:44;;;;;;;27.58;5.63;;;;;;;9.99;55.06;100779.03;5015204;28;20050;-70
2022/02/21 11:18:12;;;;;;;33.78;5.95;;;;;;;10.07;55.57;100784.63;5034712;28;20413;-70
2022/02/21 11:20:40;;;;;;;31.73;6.25;;;;;;;10.15;55.69;100783.94;5035473;28;20508;-71
2022/02/21 11:23:07;;;;;;;27.90;5.07;;;;;;;9.97;55.83;100801.34;5034166;28;20095;-68
2022/02/21 11:26:02;;;;;;;26.80;5.55;;;;;;;10.22;56.17;100801.97;5040596;28;20053;-69
2022/02/21 11:28:34;;;;;;;20.40;5.07;;;;;;;10.18;55.73;100799.03;5032404;28;20432;-68
2022/02/21 11:31:03;;;;;;;27.45;5.00;;;;;;;10.11;56.90;100802.19;5025858;28;20460;-63